Portada
METAR-TAF:

METAR-TAF

Aeroports :

Tulcán, Equador

latitud: 00-48-34N, longitud: 077-42-29W, altitud: 2941 m

Observació

L'informe es va fer fa 16 minuts, a les 18:00 UTC
Vent 8 kt del Sud/Sud-Est
Temperatura 18°C
Humitat 49%
Pressió 1029 hPa
Visibilitat 10 km o més
Cel ennuvolat a una alçada de 2300 ft

METAR: SETU 261800Z 16008KT 9999 BKN023 18/07 Q1029

Hora: 13:16 (18:16 UTC)


TAF: manca

Observacions i pronòstics meteorològics de més de 4000 aeroports (METAR i TAF).

Les estacions disponibles són els punts grocs i vermells al mapa.

Posi el ratolí al punt desitjat per veure el nom de l'estació.

Feu clic per veure les observacions i els pronòstics meteorològics.

Per canviar el mapa: feu clic els botons verds amb una creu de color negre per apropar; al botó verd amb un guió per allunyar la imatge; o en les fletxes verdes per a mapes adjacents.


METAR-TAF: